Time;durP1;ratioP1;P1;durP2;ratioP2;P2;SDS_P1;SDS_P2;PMS_P1;PMS_P2;Temp;Humidity;BMP_temperature;BMP_pressure;BME280_temperature;BME280_humidity;BME280_pressure;Samples;Min_cycle;Max_cycle;Signal;HPM_P1;HPM_P2
2021/01/07 00:01:23;;;;;;;67.93;34.90;;;1.50;99.90;;;;;;5035825;28;20294;-81
2021/01/07 00:03:49;;;;;;;63.83;33.53;;;1.50;99.90;;;;;;5032115;28;20228;-81
2021/01/07 00:06:16;;;;;;;64.53;32.80;;;1.40;99.90;;;;;;5034506;28;20231;-80
2021/01/07 00:08:43;;;;;;;63.63;34.43;;;1.40;99.90;;;;;;5051179;28;20228;-81
2021/01/07 00:11:11;;;;;;;71.03;34.30;;;1.30;99.90;;;;;;5032040;28;20232;-81
2021/01/07 00:13:37;;;;;;;68.40;33.57;;;1.20;99.90;;;;;;5038596;28;20262;-80
2021/01/07 00:16:05;;;;;;;69.20;35.77;;;1.10;99.90;;;;;;5052381;28;20230;-81
2021/01/07 00:18:31;;;;;;;63.67;34.37;;;1.10;99.90;;;;;;5037706;28;20246;-81
2021/01/07 00:20:58;;;;;;;65.37;33.60;;;1.00;99.90;;;;;;5035363;28;20232;-81
2021/01/07 00:23:25;;;;;;;64.93;33.10;;;0.90;99.90;;;;;;5032773;28;20224;-81
2021/01/07 00:25:53;;;;;;;64.90;32.37;;;0.80;99.90;;;;;;5031883;28;20840;-81
2021/01/07 00:28:22;;;;;;;71.93;36.30;;;0.80;99.90;;;;;;5036457;28;20204;-81
2021/01/07 00:30:48;;;;;;;70.23;36.43;;;0.60;99.90;;;;;;5032404;28;20714;-81
2021/01/07 00:33:16;;;;;;;69.20;34.47;;;0.50;99.90;;;;;;5032916;28;20258;-81
2021/01/07 00:35:43;;;;;;;69.10;34.53;;;0.40;99.90;;;;;;5032260;28;20238;-79
2021/01/07 00:38:10;;;;;;;64.33;32.80;;;0.20;99.90;;;;;;5032423;28;20240;-81
2021/01/07 00:40:36;;;;;;;62.13;31.90;;;0.20;99.90;;;;;;5042638;28;20238;-81
2021/01/07 00:43:03;;;;;;;60.63;30.53;;;0.10;99.90;;;;;;5033489;28;20228;-81
2021/01/07 00:45:32;;;;;;;60.97;30.43;;;0.00;99.90;;;;;;5052150;28;20621;-82
2021/01/07 00:47:58;;;;;;;62.47;31.43;;;0.00;99.90;;;;;;5036363;28;20235;-81
2021/01/07 00:50:25;;;;;;;63.73;30.27;;;-0.10;99.90;;;;;;5032153;28;20239;-81
2021/01/07 00:52:51;;;;;;;63.40;30.67;;;-0.20;99.90;;;;;;5038356;28;20312;-81
2021/01/07 00:55:18;;;;;;;67.53;31.80;;;-0.30;99.90;;;;;;5034457;28;20705;-81
2021/01/07 00:57:45;;;;;;;66.80;31.10;;;-0.20;99.90;;;;;;5040135;28;20238;-79
2021/01/07 01:00:15;;;;;;;62.70;30.40;;;-0.30;99.90;;;;;;5040710;28;20221;-79
2021/01/07 01:02:43;;;;;;;59.20;29.63;;;-0.30;99.90;;;;;;5037407;28;20246;-79
2021/01/07 01:05:11;;;;;;;60.97;30.30;;;-0.40;99.90;;;;;;5050937;28;20260;-80
2021/01/07 01:07:37;;;;;;;59.70;29.27;;;-0.50;99.90;;;;;;5051876;28;20238;-79
2021/01/07 01:10:07;;;;;;;58.93;30.30;;;-0.50;99.90;;;;;;5051484;28;20289;-80
2021/01/07 01:12:33;;;;;;;59.43;29.33;;;-0.50;99.90;;;;;;5051866;28;20335;-81
2021/01/07 01:15:00;;;;;;;61.77;28.83;;;-0.50;99.90;;;;;;5049343;28;20296;-80
2021/01/07 01:17:26;;;;;;;58.07;28.17;;;-0.50;99.90;;;;;;5035643;28;20234;-79
2021/01/07 01:19:54;;;;;;;59.20;28.63;;;-0.50;99.90;;;;;;5031645;28;20281;-80
2021/01/07 01:22:20;;;;;;;57.73;28.30;;;-0.70;99.90;;;;;;5032175;28;20234;-81
2021/01/07 01:24:46;;;;;;;62.10;28.97;;;-0.90;99.90;;;;;;5031593;28;20281;-81
2021/01/07 01:27:13;;;;;;;56.93;27.50;;;-0.80;99.90;;;;;;5041676;28;20337;-80
2021/01/07 01:29:39;;;;;;;56.77;27.80;;;-0.80;99.90;;;;;;5035442;28;20206;-81
2021/01/07 01:32:06;;;;;;;58.17;27.00;;;-0.80;99.90;;;;;;5034333;28;20648;-80
2021/01/07 01:34:32;;;;;;;53.50;28.20;;;-0.80;99.90;;;;;;5048730;28;20259;-80
2021/01/07 01:37:05;;;;;;;58.70;28.40;;;-0.80;99.90;;;;;;5035073;28;20756;-80
2021/01/07 01:39:32;;;;;;;56.20;27.57;;;-0.90;99.90;;;;;;5035377;28;20602;-78
2021/01/07 01:41:58;;;;;;;55.67;27.30;;;-0.90;99.90;;;;;;5048199;28;20238;-80
2021/01/07 01:44:25;;;;;;;57.60;29.00;;;-1.00;99.90;;;;;;5053937;28;20228;-78
2021/01/07 01:46:51;;;;;;;59.47;28.17;;;-0.90;99.90;;;;;;5043140;28;20218;-78
2021/01/07 01:49:21;;;;;;;59.63;29.10;;;-0.90;99.90;;;;;;5039345;28;20240;-79
2021/01/07 01:51:49;;;;;;;59.17;28.70;;;-1.00;99.90;;;;;;5047301;28;20677;-81
2021/01/07 01:54:16;;;;;;;61.10;28.00;;;-1.10;99.90;;;;;;5034376;28;20231;-81
2021/01/07 01:56:46;;;;;;;62.00;28.63;;;-1.10;99.90;;;;;;5034982;28;20238;-79
2021/01/07 01:59:14;;;;;;;59.07;28.77;;;-1.10;99.90;;;;;;5034471;28;20711;-81
2021/01/07 02:01:40;;;;;;;61.87;28.77;;;-1.10;99.90;;;;;;5047248;28;20744;-81
2021/01/07 02:04:07;;;;;;;62.03;29.23;;;-1.20;99.90;;;;;;5054769;28;20286;-80
2021/01/07 02:06:36;;;;;;;60.23;28.17;;;-1.20;99.90;;;;;;5054608;28;20227;-81
2021/01/07 02:09:06;;;;;;;63.57;28.87;;;-1.20;99.90;;;;;;5054925;28;20208;-81
2021/01/07 02:11:34;;;;;;;61.73;27.87;;;-1.30;99.90;;;;;;5053481;28;20206;-81
2021/01/07 02:14:01;;;;;;;57.33;28.17;;;-1.20;99.90;;;;;;5037800;28;20248;-80
2021/01/07 02:16:28;;;;;;;56.50;27.87;;;-1.20;99.90;;;;;;5034462;28;20618;-81
2021/01/07 02:18:56;;;;;;;56.17;27.47;;;-1.30;99.90;;;;;;5034729;28;20236;-81
2021/01/07 02:21:24;;;;;;;68.80;32.57;;;-1.40;99.90;;;;;;5045594;28;20624;-80
2021/01/07 02:23:51;;;;;;;84.73;36.37;;;-1.40;99.90;;;;;;5038837;28;20277;-80
2021/01/07 02:26:18;;;;;;;74.60;33.77;;;-1.40;99.90;;;;;;5041178;28;20343;-81
2021/01/07 02:28:45;;;;;;;65.50;30.97;;;-1.40;99.90;;;;;;5034597;28;20246;-80
2021/01/07 02:31:11;;;;;;;89.97;31.60;;;-1.40;99.90;;;;;;5036626;28;20238;-81
2021/01/07 02:33:38;;;;;;;94.83;31.57;;;-1.30;99.90;;;;;;5034134;28;20281;-81
2021/01/07 02:36:05;;;;;;;79.17;31.83;;;-1.20;99.90;;;;;;5034043;28;20232;-81
2021/01/07 02:38:32;;;;;;;85.20;31.37;;;-1.20;99.90;;;;;;5034530;28;20256;-81
2021/01/07 02:40:59;;;;;;;84.37;32.07;;;-1.10;99.90;;;;;;5034938;28;20228;-81
2021/01/07 02:43:25;;;;;;;80.87;33.07;;;-1.20;99.90;;;;;;5033334;28;20222;-80
2021/01/07 02:45:52;;;;;;;84.53;33.50;;;-1.20;99.90;;;;;;5037862;28;20231;-81
2021/01/07 02:48:18;;;;;;;79.33;32.43;;;-1.20;99.90;;;;;;5054041;28;20251;-80
2021/01/07 02:50:44;;;;;;;108.80;44.10;;;-1.20;99.90;;;;;;5052197;28;20689;-81
2021/01/07 02:53:11;;;;;;;90.30;37.37;;;-1.20;99.90;;;;;;5053630;28;20270;-81
2021/01/07 02:55:38;;;;;;;91.80;35.80;;;-1.10;99.90;;;;;;5053588;28;20237;-81
2021/01/07 02:58:05;;;;;;;87.93;35.63;;;-1.10;99.90;;;;;;5036691;28;20644;-81
2021/01/07 03:00:32;;;;;;;86.50;34.43;;;-1.00;99.90;;;;;;5046775;28;20236;-81
2021/01/07 03:02:58;;;;;;;83.53;32.90;;;-1.10;99.90;;;;;;5053842;28;20197;-81
2021/01/07 03:05:24;;;;;;;83.17;33.10;;;-1.10;99.90;;;;;;5036874;28;20281;-81
2021/01/07 03:07:51;;;;;;;70.10;30.37;;;-1.10;99.90;;;;;;5033863;28;20237;-81
2021/01/07 03:10:19;;;;;;;75.03;31.27;;;-1.00;99.90;;;;;;5034890;28;20673;-81
2021/01/07 03:12:46;;;;;;;65.50;30.07;;;-0.90;99.90;;;;;;5053379;28;20226;-81
2021/01/07 03:15:13;;;;;;;72.73;31.13;;;-1.00;99.90;;;;;;5053405;28;20230;-81
2021/01/07 03:17:40;;;;;;;72.97;30.80;;;-0.90;99.90;;;;;;5053435;28;20259;-81
2021/01/07 03:20:12;;;;;;;70.70;32.57;;;-0.90;99.90;;;;;;5053109;28;20192;-81
2021/01/07 03:22:39;;;;;;;70.00;31.70;;;-1.00;99.90;;;;;;5052822;28;20192;-81
2021/01/07 03:25:07;;;;;;;71.37;32.77;;;-1.10;99.90;;;;;;5053441;28;20234;-81
2021/01/07 03:27:34;;;;;;;74.03;32.37;;;-1.30;99.90;;;;;;5039496;28;20324;-81
2021/01/07 03:30:01;;;;;;;69.73;33.73;;;-1.40;99.90;;;;;;5044197;28;20284;-81
2021/01/07 03:32:28;;;;;;;93.13;38.37;;;-1.40;99.90;;;;;;5033693;28;20205;-81
2021/01/07 03:34:54;;;;;;;83.83;35.30;;;-1.50;99.90;;;;;;5042252;28;20643;-81
2021/01/07 03:37:21;;;;;;;80.23;34.30;;;-1.60;99.90;;;;;;5053339;28;20194;-82
2021/01/07 03:39:47;;;;;;;104.13;41.90;;;-1.70;99.90;;;;;;5052725;28;20730;-81
2021/01/07 03:42:13;;;;;;;99.17;40.90;;;-1.70;99.90;;;;;;5053326;28;20228;-81
2021/01/07 03:44:40;;;;;;;96.20;34.10;;;-1.70;99.90;;;;;;5052756;28;20679;-79
2021/01/07 03:47:07;;;;;;;73.13;31.63;;;-1.70;99.90;;;;;;5052867;28;20195;-79
2021/01/07 03:49:34;;;;;;;68.07;29.63;;;-1.70;99.90;;;;;;5051235;28;20246;-81
2021/01/07 03:52:00;;;;;;;68.80;29.93;;;-1.70;99.90;;;;;;5052416;28;20659;-81
2021/01/07 03:54:27;;;;;;;80.13;30.27;;;-1.60;99.90;;;;;;5052865;28;20694;-79
2021/01/07 03:56:53;;;;;;;86.60;32.67;;;-1.70;99.90;;;;;;5052736;28;20235;-80
2021/01/07 03:59:20;;;;;;;72.70;30.40;;;-1.50;99.90;;;;;;5052772;28;20710;-81
2021/01/07 04:01:46;;;;;;;70.57;29.53;;;-1.50;99.90;;;;;;5037519;28;20608;-81
2021/01/07 04:04:14;;;;;;;76.43;31.90;;;-1.40;99.90;;;;;;5032051;28;20668;-80
2021/01/07 04:06:40;;;;;;;69.40;31.70;;;-1.20;99.90;;;;;;5032824;28;20260;-81
2021/01/07 04:09:07;;;;;;;68.77;31.97;;;-1.10;99.90;;;;;;5032778;28;20295;-81
2021/01/07 04:11:33;;;;;;;68.93;30.63;;;-1.10;99.90;;;;;;5037778;28;20200;-81
2021/01/07 04:14:00;;;;;;;67.57;31.93;;;-1.10;99.90;;;;;;5052288;28;20308;-81
2021/01/07 04:16:26;;;;;;;73.10;29.97;;;-1.00;99.90;;;;;;5052306;28;20236;-81
2021/01/07 04:18:53;;;;;;;65.73;28.83;;;-0.90;99.90;;;;;;5052194;28;20234;-81
2021/01/07 04:21:20;;;;;;;69.27;29.27;;;-0.80;99.90;;;;;;5052265;28;20710;-81
2021/01/07 04:23:47;;;;;;;66.83;28.90;;;-0.80;99.90;;;;;;5052461;28;20201;-81
2021/01/07 04:26:15;;;;;;;71.33;31.50;;;-0.70;99.90;;;;;;5051455;28;20276;-81
2021/01/07 04:28:42;;;;;;;72.20;30.37;;;-0.70;99.90;;;;;;5050377;28;20255;-79
2021/01/07 04:31:09;;;;;;;71.57;30.03;;;-0.60;99.90;;;;;;5034223;28;20280;-81
2021/01/07 04:33:36;;;;;;;69.37;31.80;;;-0.60;99.90;;;;;;5031870;28;20247;-81
2021/01/07 04:36:02;;;;;;;67.23;30.53;;;-0.50;99.90;;;;;;5032084;28;20210;-79
2021/01/07 04:38:30;;;;;;;71.97;30.53;;;-0.50;99.90;;;;;;5032141;28;20287;-81
2021/01/07 04:40:56;;;;;;;75.87;33.43;;;-0.40;99.90;;;;;;5032060;28;20216;-79
2021/01/07 04:43:23;;;;;;;68.67;31.97;;;-0.30;99.90;;;;;;5032330;28;20229;-79
2021/01/07 04:45:51;;;;;;;62.83;28.90;;;-0.40;99.90;;;;;;5032282;28;20830;-79
2021/01/07 04:48:19;;;;;;;65.43;28.67;;;-0.40;99.90;;;;;;5031720;28;20213;-81
2021/01/07 04:50:45;;;;;;;63.90;29.23;;;-0.40;99.90;;;;;;5032183;28;20235;-80
2021/01/07 04:53:12;;;;;;;61.10;28.93;;;-0.40;99.90;;;;;;5031913;28;20314;-80
2021/01/07 04:55:39;;;;;;;63.60;29.00;;;-0.40;99.90;;;;;;5047925;28;20650;-80
2021/01/07 04:58:05;;;;;;;68.50;29.80;;;-0.30;99.90;;;;;;5034714;28;20335;-80
2021/01/07 05:00:34;;;;;;;67.87;30.50;;;-0.30;99.90;;;;;;5031941;28;20250;-80
2021/01/07 05:03:01;;;;;;;64.27;29.67;;;-0.20;99.90;;;;;;5037198;28;20260;-80
2021/01/07 05:05:28;;;;;;;68.23;31.20;;;-0.20;99.90;;;;;;5052114;28;20234;-80
2021/01/07 05:07:54;;;;;;;68.53;30.00;;;-0.20;99.90;;;;;;5056084;28;20288;-80
2021/01/07 05:10:23;;;;;;;62.70;29.33;;;-0.20;99.90;;;;;;5050815;28;20230;-80
2021/01/07 05:12:53;;;;;;;64.37;29.90;;;-0.20;99.90;;;;;;5049259;28;20257;-80
2021/01/07 05:15:20;;;;;;;60.40;31.03;;;-0.10;99.90;;;;;;5050288;28;20262;-80
2021/01/07 05:17:46;;;;;;;63.93;30.13;;;-0.10;99.90;;;;;;5055685;28;20236;-80
2021/01/07 05:20:14;;;;;;;57.50;28.27;;;-0.10;99.90;;;;;;5055545;28;20230;-80
2021/01/07 05:22:42;;;;;;;55.53;27.77;;;-0.10;99.90;;;;;;5055741;28;20201;-80
2021/01/07 05:25:11;;;;;;;54.77;27.57;;;-0.10;99.90;;;;;;5055719;28;20202;-79
2021/01/07 05:27:38;;;;;;;60.13;28.77;;;-0.10;99.90;;;;;;5051981;28;20235;-80
2021/01/07 05:30:08;;;;;;;60.37;28.43;;;0.00;99.90;;;;;;5040971;28;20234;-80
2021/01/07 05:32:36;;;;;;;59.53;29.03;;;0.10;99.90;;;;;;5035493;28;20217;-80
2021/01/07 05:35:06;;;;;;;65.23;30.03;;;0.10;99.90;;;;;;5035589;28;20235;-80
2021/01/07 05:37:35;;;;;;;68.20;31.43;;;0.10;99.90;;;;;;5035870;28;20198;-80
2021/01/07 05:40:03;;;;;;;66.53;30.57;;;0.10;99.90;;;;;;5055500;28;20213;-81
2021/01/07 05:42:37;;;;;;;72.30;32.40;;;0.20;99.90;;;;;;5055077;28;20651;-80
2021/01/07 05:45:07;;;;;;;68.57;32.00;;;0.30;99.90;;;;;;5046978;28;20237;-80
2021/01/07 05:47:39;;;;;;;65.20;31.40;;;0.30;99.90;;;;;;5035327;28;20236;-80
2021/01/07 05:50:07;;;;;;;61.10;28.90;;;0.20;99.90;;;;;;5051420;28;20272;-80
2021/01/07 05:52:34;;;;;;;63.53;29.83;;;0.30;99.90;;;;;;5054656;28;20685;-80
2021/01/07 05:55:01;;;;;;;63.53;30.87;;;0.30;99.90;;;;;;5044173;28;20234;-79
2021/01/07 05:57:29;;;;;;;68.90;31.33;;;0.40;99.90;;;;;;5055122;28;20316;-80
2021/01/07 05:59:58;;;;;;;68.77;30.07;;;0.40;99.90;;;;;;5054888;28;20240;-80
2021/01/07 06:02:26;;;;;;;64.20;30.13;;;0.40;99.90;;;;;;5051410;28;20202;-81
2021/01/07 06:04:53;;;;;;;66.33;29.73;;;0.30;99.90;;;;;;5043055;28;20200;-81
2021/01/07 06:07:20;;;;;;;64.90;30.10;;;0.30;99.90;;;;;;5034475;28;20198;-81
2021/01/07 06:09:48;;;;;;;66.83;30.00;;;0.30;99.90;;;;;;5034626;28;20770;-80
2021/01/07 06:12:15;;;;;;;65.20;30.07;;;0.40;99.90;;;;;;5034737;28;20226;-80
2021/01/07 06:14:43;;;;;;;70.13;30.17;;;0.40;99.90;;;;;;5035754;28;20707;-81
2021/01/07 06:17:10;;;;;;;63.30;30.40;;;0.40;99.90;;;;;;5033482;28;20648;-81
2021/01/07 06:19:40;;;;;;;67.20;29.97;;;0.40;99.90;;;;;;5036694;28;20206;-81
2021/01/07 06:22:14;;;;;;;64.83;29.97;;;0.30;99.90;;;;;;5054672;28;20585;-80
2021/01/07 06:24:42;;;;;;;65.80;30.47;;;0.30;99.90;;;;;;5054443;28;20210;-84
2021/01/07 06:27:26;;;;;;;67.90;30.33;;;0.30;99.90;;;;;;5044049;28;20237;-81
2021/01/07 06:30:16;;;;;;;75.73;32.27;;;0.40;99.90;;;;;;5034822;28;20293;-83
2021/01/07 06:32:44;;;;;;;71.00;32.40;;;0.40;99.90;;;;;;5021509;28;20746;-83
2021/01/07 06:35:14;;;;;;;72.83;33.00;;;0.40;99.90;;;;;;5035970;28;20297;-83
2021/01/07 06:37:42;;;;;;;69.87;31.80;;;0.40;99.90;;;;;;5027308;28;20679;-82
2021/01/07 06:40:11;;;;;;;212.20;97.17;;;0.40;99.90;;;;;;5041814;28;20282;-82
2021/01/07 06:45:13;;;;;;;62.73;29.83;;;0.40;99.90;;;;;;4838300;23;9999824;-82
2021/01/07 06:47:42;;;;;;;67.27;29.13;;;0.40;99.90;;;;;;5058629;28;20748;-81
2021/01/07 06:50:11;;;;;;;63.80;29.87;;;0.40;99.90;;;;;;5067775;28;20241;-82
2021/01/07 06:52:39;;;;;;;65.07;29.10;;;0.40;99.90;;;;;;5075151;28;20240;-82
2021/01/07 06:55:10;;;;;;;67.37;29.80;;;0.40;99.90;;;;;;5067578;28;20281;-83
2021/01/07 06:57:43;;;;;;;62.70;30.40;;;0.40;99.90;;;;;;5071380;28;20205;-83
2021/01/07 07:00:11;;;;;;;55.73;28.33;;;0.40;99.90;;;;;;5059683;28;20216;-83
2021/01/07 07:02:38;;;;;;;56.57;28.37;;;0.40;99.90;;;;;;5062639;28;20661;-83
2021/01/07 07:05:08;;;;;;;62.13;29.40;;;0.40;99.90;;;;;;5054702;28;20278;-83
2021/01/07 07:08:06;;;;;;;59.23;27.90;;;0.30;99.90;;;;;;5057058;28;20207;-83
2021/01/07 07:11:08;;;;;;;61.77;29.33;;;0.20;99.90;;;;;;5054745;28;20285;-84
2021/01/07 07:13:41;;;;;;;64.23;29.00;;;0.10;99.90;;;;;;5062601;28;20332;-83
2021/01/07 07:16:10;;;;;;;65.17;29.97;;;0.00;99.90;;;;;;5067604;28;20301;-84
2021/01/07 07:18:38;;;;;;;76.97;36.03;;;-0.10;99.90;;;;;;5062301;28;20206;-84
2021/01/07 07:21:15;;;;;;;73.17;37.87;;;-0.10;99.90;;;;;;5063719;28;20606;-84
2021/01/07 07:23:44;;;;;;;69.97;35.23;;;-0.20;99.90;;;;;;5074022;28;20297;-83
2021/01/07 07:26:12;;;;;;;72.63;33.87;;;-0.30;99.90;;;;;;5073507;28;20207;-83
2021/01/07 07:28:43;;;;;;;63.60;31.23;;;-0.30;99.90;;;;;;5072995;28;20263;-83
2021/01/07 07:31:10;;;;;;;73.27;34.07;;;-0.40;99.90;;;;;;5072946;28;20240;-83
2021/01/07 07:33:37;;;;;;;73.33;34.00;;;-0.40;99.90;;;;;;5071183;28;20268;-84
2021/01/07 07:36:06;;;;;;;70.47;34.27;;;-0.40;99.90;;;;;;5073936;28;20559;-83
2021/01/07 07:38:34;;;;;;;69.03;32.67;;;-0.40;99.90;;;;;;5073632;28;20228;-83
2021/01/07 07:41:04;;;;;;;65.13;30.67;;;-0.50;99.90;;;;;;5073928;28;20218;-81
2021/01/07 07:43:32;;;;;;;65.40;31.23;;;-0.70;99.90;;;;;;5072012;28;20672;-83
2021/01/07 07:46:00;;;;;;;69.53;31.10;;;-0.70;99.90;;;;;;5060979;28;20248;-82
2021/01/07 07:48:28;;;;;;;71.37;33.03;;;-0.80;99.90;;;;;;5071676;28;20204;-84
2021/01/07 07:51:09;;;;;;;74.70;34.77;;;-0.90;99.90;;;;;;5059489;28;20246;-82
2021/01/07 07:53:36;;;;;;;73.13;34.20;;;-0.80;99.90;;;;;;5053286;28;20263;-81
2021/01/07 07:56:04;;;;;;;75.63;36.27;;;-0.90;99.90;;;;;;5067735;28;20302;-82
2021/01/07 07:58:31;;;;;;;76.33;35.07;;;-0.80;99.90;;;;;;5073211;28;20238;-82
2021/01/07 08:00:59;;;;;;;74.17;34.37;;;-1.00;99.90;;;;;;5067290;28;20232;-81
2021/01/07 08:03:27;;;;;;;73.97;33.63;;;-1.00;99.90;;;;;;5072731;28;20237;-84
2021/01/07 08:05:56;;;;;;;75.90;34.57;;;-0.80;99.90;;;;;;5053487;28;20237;-83
2021/01/07 08:08:24;;;;;;;67.33;32.10;;;-0.90;99.90;;;;;;5063157;28;20228;-83
2021/01/07 08:10:50;;;;;;;70.63;31.13;;;-0.80;99.90;;;;;;5070194;28;20206;-83
2021/01/07 08:13:21;;;;;;;74.10;32.10;;;-0.80;99.90;;;;;;5067211;28;20224;-84
2021/01/07 08:15:50;;;;;;;74.17;32.53;;;-0.80;99.90;;;;;;5055271;28;20311;-83
2021/01/07 08:18:18;;;;;;;69.40;31.47;;;-0.70;99.90;;;;;;5073177;28;20214;-81
2021/01/07 08:20:46;;;;;;;72.63;33.27;;;-0.60;99.90;;;;;;5073220;28;20303;-82
2021/01/07 08:23:13;;;;;;;64.53;31.47;;;-0.60;99.90;;;;;;5058551;28;20242;-81
2021/01/07 08:25:40;;;;;;;71.27;32.93;;;-0.60;99.90;;;;;;5068248;28;20204;-84
2021/01/07 08:28:17;;;;;;;82.93;34.53;;;-0.60;99.90;;;;;;5065223;28;20716;-84
2021/01/07 08:30:50;;;;;;;86.13;36.97;;;-0.30;99.90;;;;;;5052924;28;20669;-83
2021/01/07 08:33:19;;;;;;;76.37;35.13;;;0.00;99.90;;;;;;5053337;28;20684;-82
2021/01/07 08:35:48;;;;;;;82.00;36.10;;;0.30;99.90;;;;;;5066005;28;20229;-83
2021/01/07 08:38:26;;;;;;;76.27;36.33;;;0.50;99.90;;;;;;5063941;28;20210;-82
2021/01/07 08:40:54;;;;;;;75.80;34.80;;;0.60;99.90;;;;;;5060571;28;20195;-84
2021/01/07 08:43:20;;;;;;;79.17;38.07;;;0.70;99.90;;;;;;5073225;28;20201;-81
2021/01/07 08:45:49;;;;;;;81.10;39.37;;;0.70;99.90;;;;;;5059456;28;20673;-85
2021/01/07 08:48:21;;;;;;;77.83;39.17;;;0.80;99.90;;;;;;5059931;28;20277;-82
2021/01/07 08:50:48;;;;;;;88.30;43.30;;;1.00;99.90;;;;;;5075608;28;20282;-82
2021/01/07 08:53:14;;;;;;;75.30;38.80;;;1.20;99.90;;;;;;5072560;28;20225;-81
2021/01/07 08:55:45;;;;;;;72.57;37.17;;;1.30;99.90;;;;;;5074799;28;20252;-81
2021/01/07 08:58:19;;;;;;;71.33;37.00;;;1.60;99.90;;;;;;5056781;28;20246;-81
2021/01/07 09:00:49;;;;;;;67.10;35.73;;;1.30;99.90;;;;;;5068914;28;20206;-84
2021/01/07 09:03:15;;;;;;;71.80;36.43;;;1.20;99.90;;;;;;5072069;28;20191;-83
2021/01/07 09:05:42;;;;;;;59.37;32.10;;;1.10;99.90;;;;;;5076462;28;20203;-83
2021/01/07 09:08:09;;;;;;;68.70;31.73;;;0.90;99.90;;;;;;5064830;28;20227;-83
2021/01/07 09:10:36;;;;;;;72.27;31.63;;;0.80;99.90;;;;;;5073595;28;20906;-82
2021/01/07 09:13:20;;;;;;;67.37;30.17;;;0.70;99.90;;;;;;5076449;28;20202;-82
2021/01/07 09:15:48;;;;;;;71.03;30.97;;;0.70;99.90;;;;;;5056752;28;20257;-84
2021/01/07 09:18:18;;;;;;;77.70;33.73;;;0.70;99.90;;;;;;5056404;28;20675;-83
2021/01/07 09:20:44;;;;;;;73.63;34.40;;;0.90;99.90;;;;;;5066697;28;20206;-84
2021/01/07 09:23:14;;;;;;;76.63;40.53;;;0.70;99.90;;;;;;5062564;28;20223;-84
2021/01/07 09:25:41;;;;;;;70.73;39.60;;;0.70;99.90;;;;;;5056102;28;20208;-83
2021/01/07 09:28:08;;;;;;;66.80;33.20;;;0.80;99.90;;;;;;5076040;28;20203;-84
2021/01/07 09:30:38;;;;;;;57.13;31.30;;;0.90;99.90;;;;;;5074396;28;20203;-83
2021/01/07 09:33:08;;;;;;;54.43;29.57;;;0.90;99.90;;;;;;5063631;28;20247;-83
2021/01/07 09:35:34;;;;;;;86.07;48.73;;;1.00;99.90;;;;;;5069566;28;20209;-83
2021/01/07 09:38:02;;;;;;;52.53;26.97;;;1.00;99.90;;;;;;5069821;28;20203;-83
2021/01/07 09:40:29;;;;;;;54.83;28.30;;;1.10;99.90;;;;;;5074858;28;20196;-83
2021/01/07 09:42:55;;;;;;;55.53;29.57;;;1.10;99.90;;;;;;5075547;28;20198;-84
2021/01/07 09:45:24;;;;;;;61.10;32.43;;;1.30;99.90;;;;;;5072550;28;20227;-83
2021/01/07 09:47:50;;;;;;;73.77;42.63;;;1.30;99.90;;;;;;5055139;28;20204;-82
2021/01/07 09:50:20;;;;;;;60.37;31.73;;;1.60;99.90;;;;;;5069958;28;20225;-83
2021/01/07 09:52:48;;;;;;;62.10;31.60;;;1.50;99.90;;;;;;5073859;28;20195;-82
2021/01/07 09:55:14;;;;;;;62.13;32.93;;;1.50;99.90;;;;;;5059048;28;20301;-82
2021/01/07 09:57:46;;;;;;;63.20;32.50;;;1.60;99.90;;;;;;5066280;28;20211;-82
2021/01/07 10:00:14;;;;;;;66.47;34.40;;;1.60;99.90;;;;;;5074833;28;20617;-81
2021/01/07 10:02:40;;;;;;;66.50;34.80;;;1.70;99.90;;;;;;5070913;28;20203;-80
2021/01/07 10:05:08;;;;;;;78.87;35.83;;;1.90;99.90;;;;;;5055116;28;20231;-81
2021/01/07 10:07:36;;;;;;;63.97;33.20;;;2.00;99.90;;;;;;5073078;28;20288;-81
2021/01/07 10:10:02;;;;;;;62.43;32.27;;;2.00;99.90;;;;;;5068814;28;20235;-82
2021/01/07 10:12:29;;;;;;;63.37;34.60;;;2.00;99.90;;;;;;5074622;28;20223;-81
2021/01/07 10:14:55;;;;;;;62.20;33.57;;;2.20;99.90;;;;;;5055798;28;20306;-81
2021/01/07 10:17:21;;;;;;;59.43;33.27;;;2.30;99.90;;;;;;5061431;28;20234;-81
2021/01/07 10:19:48;;;;;;;145.43;86.37;;;2.50;99.90;;;;;;5069385;28;20231;-81
2021/01/07 10:22:17;;;;;;;126.93;71.67;;;2.60;99.90;;;;;;5055895;28;20236;-82
2021/01/07 10:24:46;;;;;;;109.67;60.50;;;2.60;99.90;;;;;;5062122;28;20202;-82
2021/01/07 10:27:14;;;;;;;73.57;39.97;;;2.70;99.90;;;;;;5058392;28;20241;-81
2021/01/07 10:29:42;;;;;;;68.93;37.43;;;3.00;99.90;;;;;;5054250;28;20244;-82
2021/01/07 10:32:09;;;;;;;62.53;35.47;;;2.90;99.90;;;;;;5071984;28;20635;-82
2021/01/07 10:34:41;;;;;;;62.50;32.67;;;3.00;99.90;;;;;;5056912;28;20693;-81
2021/01/07 10:37:09;;;;;;;58.80;31.90;;;3.20;99.90;;;;;;5053774;28;20261;-82
2021/01/07 10:39:38;;;;;;;64.90;34.03;;;3.40;99.90;;;;;;5064853;28;20624;-81
2021/01/07 10:42:07;;;;;;;67.27;34.93;;;3.70;99.90;;;;;;5054069;28;20677;-81
2021/01/07 10:44:36;;;;;;;61.43;34.63;;;4.20;99.90;;;;;;5065583;28;20262;-80
2021/01/07 10:47:04;;;;;;;62.47;34.50;;;4.70;99.90;;;;;;5060534;28;20269;-81
2021/01/07 10:49:32;;;;;;;61.30;34.53;;;5.10;99.90;;;;;;5056889;28;20230;-81
2021/01/07 10:52:34;;;;;;;57.13;32.60;;;5.70;99.90;;;;;;5071912;28;20240;-82
2021/01/07 10:55:20;;;;;;;58.60;33.87;;;6.20;99.90;;;;;;5072218;28;20221;-82
2021/01/07 10:58:35;;;;;;;53.90;31.23;;;6.60;99.90;;;;;;5074313;28;20209;-80
2021/01/07 11:01:22;;;;;;;52.17;30.30;;;7.20;99.90;;;;;;5071611;28;20198;-82
2021/01/07 11:04:13;;;;;;;53.83;29.23;;;7.60;99.90;;;;;;5069687;28;20211;-81
2021/01/07 11:06:48;;;;;;;46.83;27.53;;;8.00;99.90;;;;;;5064387;28;20206;-82
2021/01/07 11:09:16;;;;;;;47.40;28.47;;;8.30;99.90;;;;;;5061720;28;20199;-82
2021/01/07 11:11:46;;;;;;;48.77;29.20;;;8.60;99.90;;;;;;5072095;28;20231;-82
2021/01/07 11:14:21;;;;;;;46.83;27.93;;;8.80;99.90;;;;;;5061736;28;20223;-82
2021/01/07 11:16:50;;;;;;;45.23;27.93;;;8.90;99.90;;;;;;5073592;28;20213;-82
2021/01/07 11:19:22;;;;;;;42.17;25.80;;;9.30;99.90;;;;;;5065609;28;20226;-82
2021/01/07 11:21:54;;;;;;;43.07;25.47;;;9.60;99.90;;;;;;5059019;28;20278;-79
2021/01/07 11:24:23;;;;;;;40.70;25.97;;;9.40;99.90;;;;;;5068481;28;20220;-79
2021/01/07 11:26:50;;;;;;;42.60;26.60;;;9.10;99.90;;;;;;5051255;28;20286;-79
2021/01/07 11:29:17;;;;;;;44.40;28.40;;;9.00;99.90;;;;;;5054215;28;20199;-79
2021/01/07 11:31:45;;;;;;;38.67;24.57;;;9.20;99.90;;;;;;5062494;28;20216;-79
2021/01/07 11:34:13;;;;;;;38.63;23.67;;;9.40;99.90;;;;;;5054329;28;20259;-79
2021/01/07 11:36:52;;;;;;;38.57;24.43;;;9.50;99.90;;;;;;5070718;28;20293;-79
2021/01/07 11:39:25;;;;;;;39.47;24.97;;;9.70;99.90;;;;;;5069764;28;20199;-80
2021/01/07 11:42:04;;;;;;;37.20;24.03;;;9.40;99.90;;;;;;5058414;28;20223;-79
2021/01/07 11:44:42;;;;;;;39.70;25.43;;;9.70;99.90;;;;;;5055495;28;20192;-80
2021/01/07 11:47:11;;;;;;;42.57;26.53;;;9.10;99.90;;;;;;5053106;28;20227;-80
2021/01/07 11:49:40;;;;;;;41.30;25.13;;;8.70;99.90;;;;;;5052617;28;20232;-79
2021/01/07 11:52:09;;;;;;;39.80;24.90;;;8.60;99.90;;;;;;5065363;28;20473;-80
2021/01/07 11:54:38;;;;;;;41.60;26.63;;;8.60;99.90;;;;;;5072721;28;20735;-78
2021/01/07 11:57:07;;;;;;;41.53;26.03;;;9.40;99.90;;;;;;5072697;28;20201;-77
2021/01/07 11:59:37;;;;;;;41.63;26.80;;;9.70;99.90;;;;;;5072671;28;20207;-80
2021/01/07 12:02:07;;;;;;;43.73;27.60;;;9.30;99.90;;;;;;5058412;28;20554;-80
2021/01/07 12:04:36;;;;;;;44.17;26.70;;;9.00;99.90;;;;;;5052444;28;20230;-78
2021/01/07 12:07:06;;;;;;;43.47;27.67;;;9.00;99.90;;;;;;5052908;28;20224;-77
2021/01/07 12:09:37;;;;;;;47.10;27.70;;;8.40;99.90;;;;;;5053869;28;20231;-78
2021/01/07 12:12:09;;;;;;;43.00;26.30;;;8.30;99.90;;;;;;5064789;28;20200;-80
2021/01/07 12:14:43;;;;;;;44.67;27.17;;;8.20;99.90;;;;;;5052991;28;20265;-80
2021/01/07 12:17:11;;;;;;;40.83;26.23;;;7.80;99.90;;;;;;5052642;28;20233;-80
2021/01/07 12:19:40;;;;;;;43.50;27.13;;;7.70;99.90;;;;;;5071797;28;20579;-80
2021/01/07 12:22:08;;;;;;;46.17;28.87;;;7.80;99.90;;;;;;5072782;28;20237;-80
2021/01/07 12:24:35;;;;;;;44.77;27.37;;;7.70;99.90;;;;;;5072322;28;20212;-80
2021/01/07 12:27:04;;;;;;;44.23;26.23;;;8.00;99.90;;;;;;5072274;28;20215;-79
2021/01/07 12:29:36;;;;;;;44.70;25.80;;;7.80;99.90;;;;;;5067884;28;20286;-80
2021/01/07 12:32:14;;;;;;;44.93;27.50;;;7.60;99.90;;;;;;5069054;28;20242;-80
2021/01/07 12:34:52;;;;;;;42.10;25.77;;;7.40;99.90;;;;;;5059036;28;20256;-81
2021/01/07 12:37:19;;;;;;;41.07;25.17;;;7.60;99.90;;;;;;5072690;28;20226;-79
2021/01/07 12:39:56;;;;;;;42.20;25.67;;;7.40;99.90;;;;;;5071781;28;20227;-80
2021/01/07 12:42:28;;;;;;;39.53;24.73;;;7.80;99.90;;;;;;5060988;28;20242;-80